sensor_id;sensor_type;location;lat;lon;timestamp;temperature;humidity
70166;SHT30;57541;47.408;18.822;2022-08-07T00:00:12;20.18;72.41
70166;SHT30;57541;47.408;18.822;2022-08-07T00:00:43;20.17;72.73
70166;SHT30;57541;47.408;18.822;2022-08-07T00:01:18;20.21;72.69
70166;SHT30;57541;47.408;18.822;2022-08-07T00:02:10;20.21;72.67
70166;SHT30;57541;47.408;18.822;2022-08-07T00:03:01;20.21;72.53
70166;SHT30;57541;47.408;18.822;2022-08-07T00:03:33;20.15;72.65
70166;SHT30;57541;47.408;18.822;2022-08-07T00:04:07;20.26;72.54
70166;SHT30;57541;47.408;18.822;2022-08-07T00:04:41;20.26;72.37
70166;SHT30;57541;47.408;18.822;2022-08-07T00:05:16;20.28;72.40
70166;SHT30;57541;47.408;18.822;2022-08-07T00:05:47;20.28;72.37
70166;SHT30;57541;47.408;18.822;2022-08-07T00:06:21;20.29;72.37
70166;SHT30;57541;47.408;18.822;2022-08-07T00:07:03;20.25;72.34
70166;SHT30;57541;47.408;18.822;2022-08-07T00:07:39;20.25;72.28
70166;SHT30;57541;47.408;18.822;2022-08-07T00:08:12;20.28;72.23
70166;SHT30;57541;47.408;18.822;2022-08-07T00:08:44;20.29;72.27
70166;SHT30;57541;47.408;18.822;2022-08-07T00:09:20;20.26;72.36
70166;SHT30;57541;47.408;18.822;2022-08-07T00:09:53;20.28;72.35
70166;SHT30;57541;47.408;18.822;2022-08-07T00:10:45;20.24;72.43
70166;SHT30;57541;47.408;18.822;2022-08-07T00:11:27;20.26;72.41
70166;SHT30;57541;47.408;18.822;2022-08-07T00:12:03;20.28;72.25
70166;SHT30;57541;47.408;18.822;2022-08-07T00:12:35;20.29;72.26
70166;SHT30;57541;47.408;18.822;2022-08-07T00:13:27;20.21;72.48
70166;SHT30;57541;47.408;18.822;2022-08-07T00:13:59;20.22;72.55
70166;SHT30;57541;47.408;18.822;2022-08-07T00:14:32;20.25;72.46
70166;SHT30;57541;47.408;18.822;2022-08-07T00:15:04;20.25;72.42
70166;SHT30;57541;47.408;18.822;2022-08-07T00:15:36;20.22;72.48
70166;SHT30;57541;47.408;18.822;2022-08-07T00:16:21;20.29;72.42
70166;SHT30;57541;47.408;18.822;2022-08-07T00:16:59;20.25;72.43
70166;SHT30;57541;47.408;18.822;2022-08-07T00:17:32;20.21;72.44
70166;SHT30;57541;47.408;18.822;2022-08-07T00:18:06;20.18;72.47
70166;SHT30;57541;47.408;18.822;2022-08-07T00:18:50;20.20;72.44
70166;SHT30;57541;47.408;18.822;2022-08-07T00:19:22;20.24;72.36
70166;SHT30;57541;47.408;18.822;2022-08-07T00:19:56;20.22;72.35
70166;SHT30;57541;47.408;18.822;2022-08-07T00:20:34;20.21;72.41
70166;SHT30;57541;47.408;18.822;2022-08-07T00:21:07;20.21;72.40
70166;SHT30;57541;47.408;18.822;2022-08-07T00:21:59;20.25;72.37
70166;SHT30;57541;47.408;18.822;2022-08-07T00:22:32;20.25;72.27
70166;SHT30;57541;47.408;18.822;2022-08-07T00:23:05;20.21;72.41
70166;SHT30;57541;47.408;18.822;2022-08-07T00:23:39;20.21;72.42
70166;SHT30;57541;47.408;18.822;2022-08-07T00:24:11;20.21;72.62
70166;SHT30;57541;47.408;18.822;2022-08-07T00:24:42;20.25;72.46
70166;SHT30;57541;47.408;18.822;2022-08-07T00:25:14;20.18;72.43
70166;SHT30;57541;47.408;18.822;2022-08-07T00:25:48;20.20;72.41
70166;SHT30;57541;47.408;18.822;2022-08-07T00:26:32;20.17;72.56
70166;SHT30;57541;47.408;18.822;2022-08-07T00:27:23;20.15;72.64
70166;SHT30;57541;47.408;18.822;2022-08-07T00:28:06;20.12;72.64
70166;SHT30;57541;47.408;18.822;2022-08-07T00:28:37;20.08;72.75
70166;SHT30;57541;47.408;18.822;2022-08-07T00:29:16;20.08;72.74
70166;SHT30;57541;47.408;18.822;2022-08-07T00:29:53;20.08;72.78
70166;SHT30;57541;47.408;18.822;2022-08-07T00:30:25;20.10;72.85
70166;SHT30;57541;47.408;18.822;2022-08-07T00:30:59;20.08;72.81
70166;SHT30;57541;47.408;18.822;2022-08-07T00:31:30;20.04;72.90
70166;SHT30;57541;47.408;18.822;2022-08-07T00:32:10;20.02;73.01
70166;SHT30;57541;47.408;18.822;2022-08-07T00:32:48;20.02;73.03
70166;SHT30;57541;47.408;18.822;2022-08-07T00:33:20;19.98;73.19
70166;SHT30;57541;47.408;18.822;2022-08-07T00:33:58;20.01;73.23
70166;SHT30;57541;47.408;18.822;2022-08-07T00:34:29;20.04;73.07
70166;SHT30;57541;47.408;18.822;2022-08-07T00:35:02;20.00;73.12
70166;SHT30;57541;47.408;18.822;2022-08-07T00:35:34;20.00;73.18
70166;SHT30;57541;47.408;18.822;2022-08-07T00:36:08;19.95;73.21
70166;SHT30;57541;47.408;18.822;2022-08-07T00:36:40;19.97;73.21
70166;SHT30;57541;47.408;18.822;2022-08-07T00:37:15;20.02;73.12
70166;SHT30;57541;47.408;18.822;2022-08-07T00:37:47;20.02;73.09
70166;SHT30;57541;47.408;18.822;2022-08-07T00:38:19;20.02;73.08
70166;SHT30;57541;47.408;18.822;2022-08-07T00:39:02;19.95;73.29
70166;SHT30;57541;47.408;18.822;2022-08-07T00:39:34;19.98;73.30
70166;SHT30;57541;47.408;18.822;2022-08-07T00:40:15;19.94;73.42
70166;SHT30;57541;47.408;18.822;2022-08-07T00:41:06;19.97;73.47
70166;SHT30;57541;47.408;18.822;2022-08-07T00:41:57;19.94;73.55
70166;SHT30;57541;47.408;18.822;2022-08-07T00:42:35;19.95;73.62
70166;SHT30;57541;47.408;18.822;2022-08-07T00:43:12;19.97;73.43
70166;SHT30;57541;47.408;18.822;2022-08-07T00:44:04;20.01;73.33
70166;SHT30;57541;47.408;18.822;2022-08-07T00:44:36;20.00;73.32
70166;SHT30;57541;47.408;18.822;2022-08-07T00:45:12;20.02;73.24
70166;SHT30;57541;47.408;18.822;2022-08-07T00:45:46;19.97;73.37
70166;SHT30;57541;47.408;18.822;2022-08-07T00:46:21;19.94;73.44
70166;SHT30;57541;47.408;18.822;2022-08-07T00:46:52;19.97;73.47
70166;SHT30;57541;47.408;18.822;2022-08-07T00:47:25;19.94;73.53
70166;SHT30;57541;47.408;18.822;2022-08-07T00:48:17;19.97;73.50
70166;SHT30;57541;47.408;18.822;2022-08-07T00:48:55;19.93;73.62
70166;SHT30;57541;47.408;18.822;2022-08-07T00:49:32;19.94;73.47
70166;SHT30;57541;47.408;18.822;2022-08-07T00:50:24;19.91;73.59
70166;SHT30;57541;47.408;18.822;2022-08-07T00:51:15;19.90;73.54
70166;SHT30;57541;47.408;18.822;2022-08-07T00:51:47;19.88;73.57
70166;SHT30;57541;47.408;18.822;2022-08-07T00:52:28;19.90;73.69
70166;SHT30;57541;47.408;18.822;2022-08-07T00:53:03;19.90;73.66
70166;SHT30;57541;47.408;18.822;2022-08-07T00:53:39;19.88;73.90
70166;SHT30;57541;47.408;18.822;2022-08-07T00:54:25;19.88;73.83
70166;SHT30;57541;47.408;18.822;2022-08-07T00:54:57;19.91;73.79
70166;SHT30;57541;47.408;18.822;2022-08-07T00:55:35;19.90;73.84
70166;SHT30;57541;47.408;18.822;2022-08-07T00:56:27;19.83;73.90
70166;SHT30;57541;47.408;18.822;2022-08-07T00:57:04;19.84;74.02
70166;SHT30;57541;47.408;18.822;2022-08-07T00:57:39;19.83;74.04
70166;SHT30;57541;47.408;18.822;2022-08-07T00:58:26;19.80;74.17
70166;SHT30;57541;47.408;18.822;2022-08-07T00:58:59;19.83;74.03
70166;SHT30;57541;47.408;18.822;2022-08-07T00:59:30;19.87;73.86
70166;SHT30;57541;47.408;18.822;2022-08-07T01:00:06;19.88;73.80
70166;SHT30;57541;47.408;18.822;2022-08-07T01:00:38;19.87;73.75
70166;SHT30;57541;47.408;18.822;2022-08-07T01:01:25;19.88;73.90
70166;SHT30;57541;47.408;18.822;2022-08-07T01:01:57;19.91;73.74
70166;SHT30;57541;47.408;18.822;2022-08-07T01:02:29;19.90;73.65
70166;SHT30;57541;47.408;18.822;2022-08-07T01:03:01;19.85;73.72
70166;SHT30;57541;47.408;18.822;2022-08-07T01:03:33;19.85;73.88
70166;SHT30;57541;47.408;18.822;2022-08-07T01:04:25;19.84;73.74
70166;SHT30;57541;47.408;18.822;2022-08-07T01:05:03;19.85;73.76
70166;SHT30;57541;47.408;18.822;2022-08-07T01:05:50;19.91;73.76
70166;SHT30;57541;47.408;18.822;2022-08-07T01:06:24;19.88;73.70
70166;SHT30;57541;47.408;18.822;2022-08-07T01:06:56;19.93;73.68
70166;SHT30;57541;47.408;18.822;2022-08-07T01:07:28;19.90;73.73
70166;SHT30;57541;47.408;18.822;2022-08-07T01:08:01;19.93;73.63
70166;SHT30;57541;47.408;18.822;2022-08-07T01:08:33;19.91;73.65
70166;SHT30;57541;47.408;18.822;2022-08-07T01:09:05;19.91;73.72
70166;SHT30;57541;47.408;18.822;2022-08-07T01:09:38;19.91;73.71
70166;SHT30;57541;47.408;18.822;2022-08-07T01:10:30;19.94;73.72
70166;SHT30;57541;47.408;18.822;2022-08-07T01:11:05;19.90;73.75
70166;SHT30;57541;47.408;18.822;2022-08-07T01:11:57;19.94;73.65
70166;SHT30;57541;47.408;18.822;2022-08-07T01:12:49;19.85;73.78
70166;SHT30;57541;47.408;18.822;2022-08-07T01:13:25;19.85;73.87
70166;SHT30;57541;47.408;18.822;2022-08-07T01:14:06;19.84;73.83
70166;SHT30;57541;47.408;18.822;2022-08-07T01:14:39;19.87;73.82
70166;SHT30;57541;47.408;18.822;2022-08-07T01:15:15;19.84;73.98
70166;SHT30;57541;47.408;18.822;2022-08-07T01:15:48;19.85;73.88
70166;SHT30;57541;47.408;18.822;2022-08-07T01:16:36;19.90;73.78
70166;SHT30;57541;47.408;18.822;2022-08-07T01:17:08;19.87;73.81
70166;SHT30;57541;47.408;18.822;2022-08-07T01:17:41;19.90;73.72
70166;SHT30;57541;47.408;18.822;2022-08-07T01:18:13;19.90;73.66
70166;SHT30;57541;47.408;18.822;2022-08-07T01:18:47;19.90;73.69
70166;SHT30;57541;47.408;18.822;2022-08-07T01:19:21;19.90;73.65
70166;SHT30;57541;47.408;18.822;2022-08-07T01:19:57;19.93;73.62
70166;SHT30;57541;47.408;18.822;2022-08-07T01:20:35;19.88;73.73
70166;SHT30;57541;47.408;18.822;2022-08-07T01:21:16;19.90;73.73
70166;SHT30;57541;47.408;18.822;2022-08-07T01:21:54;19.90;73.75
70166;SHT30;57541;47.408;18.822;2022-08-07T01:22:26;19.91;73.67
70166;SHT30;57541;47.408;18.822;2022-08-07T01:23:00;19.90;73.81
70166;SHT30;57541;47.408;18.822;2022-08-07T01:23:44;19.95;73.75
70166;SHT30;57541;47.408;18.822;2022-08-07T01:24:17;19.94;73.65
70166;SHT30;57541;47.408;18.822;2022-08-07T01:24:52;19.95;73.58
70166;SHT30;57541;47.408;18.822;2022-08-07T01:25:27;19.94;73.51
70166;SHT30;57541;47.408;18.822;2022-08-07T01:26:21;19.98;73.66
70166;SHT30;57541;47.408;18.822;2022-08-07T01:26:58;19.94;73.68
70166;SHT30;57541;47.408;18.822;2022-08-07T01:27:30;19.97;73.55
70166;SHT30;57541;47.408;18.822;2022-08-07T01:28:03;19.98;73.50
70166;SHT30;57541;47.408;18.822;2022-08-07T01:28:38;19.98;73.48
70166;SHT30;57541;47.408;18.822;2022-08-07T01:29:16;20.02;73.34
70166;SHT30;57541;47.408;18.822;2022-08-07T01:29:49;20.00;73.32
70166;SHT30;57541;47.408;18.822;2022-08-07T01:30:23;20.00;73.39
70166;SHT30;57541;47.408;18.822;2022-08-07T01:30:57;20.02;73.34
70166;SHT30;57541;47.408;18.822;2022-08-07T01:31:33;20.02;73.39
70166;SHT30;57541;47.408;18.822;2022-08-07T01:32:13;20.01;73.26
70166;SHT30;57541;47.408;18.822;2022-08-07T01:32:45;20.01;73.43
70166;SHT30;57541;47.408;18.822;2022-08-07T01:33:17;20.01;73.39
70166;SHT30;57541;47.408;18.822;2022-08-07T01:33:49;20.04;73.33
70166;SHT30;57541;47.408;18.822;2022-08-07T01:34:29;20.01;73.36
70166;SHT30;57541;47.408;18.822;2022-08-07T01:35:02;20.02;73.36
70166;SHT30;57541;47.408;18.822;2022-08-07T01:35:34;20.02;73.48
70166;SHT30;57541;47.408;18.822;2022-08-07T01:36:25;20.02;73.44
70166;SHT30;57541;47.408;18.822;2022-08-07T01:37:04;20.02;73.59
70166;SHT30;57541;47.408;18.822;2022-08-07T01:37:40;19.97;73.48
70166;SHT30;57541;47.408;18.822;2022-08-07T01:38:12;20.00;73.41
70166;SHT30;57541;47.408;18.822;2022-08-07T01:38:55;20.01;73.35
70166;SHT30;57541;47.408;18.822;2022-08-07T01:39:28;19.97;73.47
70166;SHT30;57541;47.408;18.822;2022-08-07T01:40:19;19.97;73.44
70166;SHT30;57541;47.408;18.822;2022-08-07T01:40:57;19.95;73.46
70166;SHT30;57541;47.408;18.822;2022-08-07T01:41:29;19.97;73.48
70166;SHT30;57541;47.408;18.822;2022-08-07T01:42:03;19.98;73.61
70166;SHT30;57541;47.408;18.822;2022-08-07T01:42:55;20.01;73.53
70166;SHT30;57541;47.408;18.822;2022-08-07T01:43:30;19.95;73.54
70166;SHT30;57541;47.408;18.822;2022-08-07T01:44:09;20.00;73.51
70166;SHT30;57541;47.408;18.822;2022-08-07T01:44:41;19.97;73.52
70166;SHT30;57541;47.408;18.822;2022-08-07T01:45:18;19.98;73.49
70166;SHT30;57541;47.408;18.822;2022-08-07T01:46:06;20.04;73.39
70166;SHT30;57541;47.408;18.822;2022-08-07T01:46:42;20.02;73.41
70166;SHT30;57541;47.408;18.822;2022-08-07T01:47:14;20.01;73.54
70166;SHT30;57541;47.408;18.822;2022-08-07T01:48:06;20.02;73.42
70166;SHT30;57541;47.408;18.822;2022-08-07T01:48:52;20.04;73.29
70166;SHT30;57541;47.408;18.822;2022-08-07T01:49:24;20.07;73.29
70166;SHT30;57541;47.408;18.822;2022-08-07T01:49:56;20.07;73.26
70166;SHT30;57541;47.408;18.822;2022-08-07T01:50:31;20.12;73.22
70166;SHT30;57541;47.408;18.822;2022-08-07T01:51:08;20.08;73.20
70166;SHT30;57541;47.408;18.822;2022-08-07T01:52:02;20.05;73.29
70166;SHT30;57541;47.408;18.822;2022-08-07T01:52:38;20.07;73.22
70166;SHT30;57541;47.408;18.822;2022-08-07T01:53:22;20.08;73.40
70166;SHT30;57541;47.408;18.822;2022-08-07T01:54:18;20.04;73.42
70166;SHT30;57541;47.408;18.822;2022-08-07T01:55:04;20.04;73.37
70166;SHT30;57541;47.408;18.822;2022-08-07T01:55:43;20.05;73.53
70166;SHT30;57541;47.408;18.822;2022-08-07T01:56:21;20.05;73.36
70166;SHT30;57541;47.408;18.822;2022-08-07T01:57:08;20.08;73.32
70166;SHT30;57541;47.408;18.822;2022-08-07T01:57:58;20.08;73.28
70166;SHT30;57541;47.408;18.822;2022-08-07T01:58:59;20.11;73.17
70166;SHT30;57541;47.408;18.822;2022-08-07T02:01:11;20.10;73.27
70166;SHT30;57541;47.408;18.822;2022-08-07T02:02:35;20.05;73.22
70166;SHT30;57541;47.408;18.822;2022-08-07T02:03:29;20.07;73.22
70166;SHT30;57541;47.408;18.822;2022-08-07T02:04:27;20.10;73.30
70166;SHT30;57541;47.408;18.822;2022-08-07T02:05:05;20.08;73.33
70166;SHT30;57541;47.408;18.822;2022-08-07T02:05:56;20.08;73.26
70166;SHT30;57541;47.408;18.822;2022-08-07T02:06:33;20.05;73.29
70166;SHT30;57541;47.408;18.822;2022-08-07T02:07:06;20.04;73.43
70166;SHT30;57541;47.408;18.822;2022-08-07T02:07:43;20.00;73.56
70166;SHT30;57541;47.408;18.822;2022-08-07T02:08:24;20.04;73.58
70166;SHT30;57541;47.408;18.822;2022-08-07T02:08:57;20.01;73.42
70166;SHT30;57541;47.408;18.822;2022-08-07T02:09:31;20.04;73.38
70166;SHT30;57541;47.408;18.822;2022-08-07T02:10:25;20.05;73.31
70166;SHT30;57541;47.408;18.822;2022-08-07T02:10:59;20.04;73.31
70166;SHT30;57541;47.408;18.822;2022-08-07T02:11:36;20.01;73.46
70166;SHT30;57541;47.408;18.822;2022-08-07T02:12:32;20.00;73.49
70166;SHT30;57541;47.408;18.822;2022-08-07T02:13:04;20.01;73.51
70166;SHT30;57541;47.408;18.822;2022-08-07T02:13:38;20.01;73.52
70166;SHT30;57541;47.408;18.822;2022-08-07T02:14:28;20.04;73.41
70166;SHT30;57541;47.408;18.822;2022-08-07T02:15:13;20.01;73.46
70166;SHT30;57541;47.408;18.822;2022-08-07T02:15:48;20.01;73.44
70166;SHT30;57541;47.408;18.822;2022-08-07T02:16:23;20.02;73.56
70166;SHT30;57541;47.408;18.822;2022-08-07T02:17:04;19.98;73.57
70166;SHT30;57541;47.408;18.822;2022-08-07T02:17:37;20.02;73.51
70166;SHT30;57541;47.408;18.822;2022-08-07T02:18:11;20.02;73.44
70166;SHT30;57541;47.408;18.822;2022-08-07T02:18:45;20.05;73.42
70166;SHT30;57541;47.408;18.822;2022-08-07T02:19:18;20.05;73.43
70166;SHT30;57541;47.408;18.822;2022-08-07T02:20:11;20.07;73.33
70166;SHT30;57541;47.408;18.822;2022-08-07T02:20:51;20.07;73.33
70166;SHT30;57541;47.408;18.822;2022-08-07T02:21:28;20.07;73.37
70166;SHT30;57541;47.408;18.822;2022-08-07T02:22:21;19.98;73.53
70166;SHT30;57541;47.408;18.822;2022-08-07T02:23:02;20.01;73.66
70166;SHT30;57541;47.408;18.822;2022-08-07T02:23:37;19.97;73.65
70166;SHT30;57541;47.408;18.822;2022-08-07T02:24:11;19.98;73.57
70166;SHT30;57541;47.408;18.822;2022-08-07T02:24:49;19.98;73.51
70166;SHT30;57541;47.408;18.822;2022-08-07T02:25:23;19.94;73.67
70166;SHT30;57541;47.408;18.822;2022-08-07T02:26:16;20.00;73.65
70166;SHT30;57541;47.408;18.822;2022-08-07T02:27:05;19.98;73.60
70166;SHT30;57541;47.408;18.822;2022-08-07T02:27:39;19.97;73.62
70166;SHT30;57541;47.408;18.822;2022-08-07T02:28:14;19.95;73.53
70166;SHT30;57541;47.408;18.822;2022-08-07T02:28:56;19.95;73.64
70166;SHT30;57541;47.408;18.822;2022-08-07T02:29:28;19.94;73.78
70166;SHT30;57541;47.408;18.822;2022-08-07T02:30:03;19.95;73.61
70166;SHT30;57541;47.408;18.822;2022-08-07T02:30:38;19.93;73.65
70166;SHT30;57541;47.408;18.822;2022-08-07T02:31:11;19.95;73.61
70166;SHT30;57541;47.408;18.822;2022-08-07T02:32:00;19.95;73.55
70166;SHT30;57541;47.408;18.822;2022-08-07T02:32:34;19.97;73.62
70166;SHT30;57541;47.408;18.822;2022-08-07T02:33:13;20.01;73.45
70166;SHT30;57541;47.408;18.822;2022-08-07T02:33:48;20.00;73.67
70166;SHT30;57541;47.408;18.822;2022-08-07T02:34:36;20.02;73.60
70166;SHT30;57541;47.408;18.822;2022-08-07T02:35:19;20.00;73.53
70166;SHT30;57541;47.408;18.822;2022-08-07T02:36:12;19.95;73.54
70166;SHT30;57541;47.408;18.822;2022-08-07T02:37:04;19.91;73.71
70166;SHT30;57541;47.408;18.822;2022-08-07T02:37:39;19.91;73.65
70166;SHT30;57541;47.408;18.822;2022-08-07T02:38:15;19.90;73.63
70166;SHT30;57541;47.408;18.822;2022-08-07T02:38:54;19.93;73.61
70166;SHT30;57541;47.408;18.822;2022-08-07T02:39:27;19.87;73.54
70166;SHT30;57541;47.408;18.822;2022-08-07T02:40:19;19.91;73.53
70166;SHT30;57541;47.408;18.822;2022-08-07T02:41:05;19.88;73.52
70166;SHT30;57541;47.408;18.822;2022-08-07T02:41:41;19.87;73.72
70166;SHT30;57541;47.408;18.822;2022-08-07T02:42:21;19.90;73.63
70166;SHT30;57541;47.408;18.822;2022-08-07T02:42:54;19.91;73.55
70166;SHT30;57541;47.408;18.822;2022-08-07T02:43:27;19.91;73.59
70166;SHT30;57541;47.408;18.822;2022-08-07T02:44:00;19.90;73.57
70166;SHT30;57541;47.408;18.822;2022-08-07T02:44:32;19.95;73.47
70166;SHT30;57541;47.408;18.822;2022-08-07T02:45:10;19.95;73.67
70166;SHT30;57541;47.408;18.822;2022-08-07T02:46:04;19.95;73.33
70166;SHT30;57541;47.408;18.822;2022-08-07T02:46:36;19.90;73.48
70166;SHT30;57541;47.408;18.822;2022-08-07T02:47:17;19.93;73.45
70166;SHT30;57541;47.408;18.822;2022-08-07T02:47:54;19.93;73.50
70166;SHT30;57541;47.408;18.822;2022-08-07T02:48:29;19.93;73.49
70166;SHT30;57541;47.408;18.822;2022-08-07T02:49:02;19.94;73.42
70166;SHT30;57541;47.408;18.822;2022-08-07T02:49:35;19.93;73.51
70166;SHT30;57541;47.408;18.822;2022-08-07T02:50:27;19.88;73.53
70166;SHT30;57541;47.408;18.822;2022-08-07T02:51:06;19.93;73.52
70166;SHT30;57541;47.408;18.822;2022-08-07T02:52:00;19.94;73.44
70166;SHT30;57541;47.408;18.822;2022-08-07T02:52:37;19.93;73.47
70166;SHT30;57541;47.408;18.822;2022-08-07T02:53:23;19.88;73.58
70166;SHT30;57541;47.408;18.822;2022-08-07T02:53:59;19.85;73.67
70166;SHT30;57541;47.408;18.822;2022-08-07T02:54:32;19.93;73.62
70166;SHT30;57541;47.408;18.822;2022-08-07T02:55:18;19.91;73.54
70166;SHT30;57541;47.408;18.822;2022-08-07T02:56:12;19.95;73.44
70166;SHT30;57541;47.408;18.822;2022-08-07T02:56:52;19.95;73.52
70166;SHT30;57541;47.408;18.822;2022-08-07T02:57:25;19.97;73.36
70166;SHT30;57541;47.408;18.822;2022-08-07T02:58:09;19.97;73.47
70166;SHT30;57541;47.408;18.822;2022-08-07T02:58:42;19.95;73.44
70166;SHT30;57541;47.408;18.822;2022-08-07T02:59:20;19.91;73.60
70166;SHT30;57541;47.408;18.822;2022-08-07T02:59:59;19.88;73.76
70166;SHT30;57541;47.408;18.822;2022-08-07T03:00:41;19.90;73.63
70166;SHT30;57541;47.408;18.822;2022-08-07T03:01:18;19.87;73.91
70166;SHT30;57541;47.408;18.822;2022-08-07T03:02:08;19.87;73.93
70166;SHT30;57541;47.408;18.822;2022-08-07T03:02:44;19.90;74.02
70166;SHT30;57541;47.408;18.822;2022-08-07T03:03:27;19.93;73.83
70166;SHT30;57541;47.408;18.822;2022-08-07T03:04:22;19.91;73.80
70166;SHT30;57541;47.408;18.822;2022-08-07T03:04:55;19.95;73.80
70166;SHT30;57541;47.408;18.822;2022-08-07T03:05:29;19.90;73.78
70166;SHT30;57541;47.408;18.822;2022-08-07T03:06:07;19.93;73.81
70166;SHT30;57541;47.408;18.822;2022-08-07T03:06:47;19.93;73.76
70166;SHT30;57541;47.408;18.822;2022-08-07T03:07:19;19.95;73.95
70166;SHT30;57541;47.408;18.822;2022-08-07T03:08:12;19.93;73.82
70166;SHT30;57541;47.408;18.822;2022-08-07T03:08:45;19.98;73.75
70166;SHT30;57541;47.408;18.822;2022-08-07T03:09:17;20.00;73.71
70166;SHT30;57541;47.408;18.822;2022-08-07T03:10:10;19.95;74.03
70166;SHT30;57541;47.408;18.822;2022-08-07T03:10:45;19.91;74.04
70166;SHT30;57541;47.408;18.822;2022-08-07T03:11:17;19.95;73.87
70166;SHT30;57541;47.408;18.822;2022-08-07T03:11:56;19.95;73.85
70166;SHT30;57541;47.408;18.822;2022-08-07T03:12:34;19.93;73.93
70166;SHT30;57541;47.408;18.822;2022-08-07T03:13:07;19.94;74.16
70166;SHT30;57541;47.408;18.822;2022-08-07T03:13:41;19.94;73.94
70166;SHT30;57541;47.408;18.822;2022-08-07T03:14:20;19.93;73.93
70166;SHT30;57541;47.408;18.822;2022-08-07T03:14:53;19.94;73.93
70166;SHT30;57541;47.408;18.822;2022-08-07T03:15:27;19.94;73.97
70166;SHT30;57541;47.408;18.822;2022-08-07T03:16:19;19.97;74.03
70166;SHT30;57541;47.408;18.822;2022-08-07T03:16:58;19.98;73.97
70166;SHT30;57541;47.408;18.822;2022-08-07T03:17:35;19.97;73.90
70166;SHT30;57541;47.408;18.822;2022-08-07T03:18:25;19.97;73.98
70166;SHT30;57541;47.408;18.822;2022-08-07T03:19:06;19.95;74.06
70166;SHT30;57541;47.408;18.822;2022-08-07T03:19:39;19.93;74.10
70166;SHT30;57541;47.408;18.822;2022-08-07T03:20:11;19.90;74.17
70166;SHT30;57541;47.408;18.822;2022-08-07T03:20:43;19.91;74.16
70166;SHT30;57541;47.408;18.822;2022-08-07T03:21:17;19.91;74.28
70166;SHT30;57541;47.408;18.822;2022-08-07T03:21:50;19.91;74.30
70166;SHT30;57541;47.408;18.822;2022-08-07T03:22:23;19.90;74.49
70166;SHT30;57541;47.408;18.822;2022-08-07T03:23:01;19.94;74.40
70166;SHT30;57541;47.408;18.822;2022-08-07T03:23:37;19.95;74.31
70166;SHT30;57541;47.408;18.822;2022-08-07T03:24:29;19.95;74.18
70166;SHT30;57541;47.408;18.822;2022-08-07T03:25:02;19.98;74.21
70166;SHT30;57541;47.408;18.822;2022-08-07T03:25:41;20.01;74.11
70166;SHT30;57541;47.408;18.822;2022-08-07T03:26:17;20.01;74.16
70166;SHT30;57541;47.408;18.822;2022-08-07T03:26:59;20.05;74.17
70166;SHT30;57541;47.408;18.822;2022-08-07T03:27:31;20.05;74.15
70166;SHT30;57541;47.408;18.822;2022-08-07T03:28:26;19.98;74.28
70166;SHT30;57541;47.408;18.822;2022-08-07T03:29:10;20.01;74.11
70166;SHT30;57541;47.408;18.822;2022-08-07T03:29:47;19.97;74.35
70166;SHT30;57541;47.408;18.822;2022-08-07T03:30:21;19.97;74.40
70166;SHT30;57541;47.408;18.822;2022-08-07T03:30:55;19.97;74.50
70166;SHT30;57541;47.408;18.822;2022-08-07T03:31:48;20.02;74.45
70166;SHT30;57541;47.408;18.822;2022-08-07T03:32:32;20.01;74.36
70166;SHT30;57541;47.408;18.822;2022-08-07T03:33:05;20.00;74.52
70166;SHT30;57541;47.408;18.822;2022-08-07T03:33:41;20.01;74.54
70166;SHT30;57541;47.408;18.822;2022-08-07T03:34:15;20.00;74.47
70166;SHT30;57541;47.408;18.822;2022-08-07T03:34:56;20.01;74.35
70166;SHT30;57541;47.408;18.822;2022-08-07T03:35:48;20.02;74.42
70166;SHT30;57541;47.408;18.822;2022-08-07T03:36:23;20.08;74.33
70166;SHT30;57541;47.408;18.822;2022-08-07T03:36:59;20.08;74.18
70166;SHT30;57541;47.408;18.822;2022-08-07T03:37:44;20.07;74.29
70166;SHT30;57541;47.408;18.822;2022-08-07T03:38:25;20.08;74.18
70166;SHT30;57541;47.408;18.822;2022-08-07T03:39:06;20.10;74.11
70166;SHT30;57541;47.408;18.822;2022-08-07T03:39:39;20.04;74.17
70166;SHT30;57541;47.408;18.822;2022-08-07T03:40:30;20.08;74.37
70166;SHT30;57541;47.408;18.822;2022-08-07T03:41:08;20.12;74.24
70166;SHT30;57541;47.408;18.822;2022-08-07T03:41:40;20.11;74.07
70166;SHT30;57541;47.408;18.822;2022-08-07T03:42:18;20.12;74.20
70166;SHT30;57541;47.408;18.822;2022-08-07T03:42:51;20.14;74.06
70166;SHT30;57541;47.408;18.822;2022-08-07T03:43:24;20.12;73.81
70166;SHT30;57541;47.408;18.822;2022-08-07T03:44:03;20.12;73.87
70166;SHT30;57541;47.408;18.822;2022-08-07T03:44:36;20.05;74.01
70166;SHT30;57541;47.408;18.822;2022-08-07T03:45:09;20.08;73.92
70166;SHT30;57541;47.408;18.822;2022-08-07T03:45:42;20.05;74.06
70166;SHT30;57541;47.408;18.822;2022-08-07T03:46:19;20.04;74.11
70166;SHT30;57541;47.408;18.822;2022-08-07T03:46:57;20.05;73.97
70166;SHT30;57541;47.408;18.822;2022-08-07T03:47:45;20.04;73.98
70166;SHT30;57541;47.408;18.822;2022-08-07T03:48:22;20.04;73.97
70166;SHT30;57541;47.408;18.822;2022-08-07T03:48:56;20.01;74.06
70166;SHT30;57541;47.408;18.822;2022-08-07T03:49:34;20.05;74.17
70166;SHT30;57541;47.408;18.822;2022-08-07T03:50:06;20.07;74.02
70166;SHT30;57541;47.408;18.822;2022-08-07T03:50:41;20.02;74.03
70166;SHT30;57541;47.408;18.822;2022-08-07T03:51:29;20.08;73.98
70166;SHT30;57541;47.408;18.822;2022-08-07T03:52:20;20.07;73.99
70166;SHT30;57541;47.408;18.822;2022-08-07T03:52:57;20.04;74.05
70166;SHT30;57541;47.408;18.822;2022-08-07T03:53:30;20.04;74.05
70166;SHT30;57541;47.408;18.822;2022-08-07T03:54:22;19.95;74.15
70166;SHT30;57541;47.408;18.822;2022-08-07T03:55:13;20.00;74.07
70166;SHT30;57541;47.408;18.822;2022-08-07T03:55:45;20.00;73.99
70166;SHT30;57541;47.408;18.822;2022-08-07T03:56:30;19.98;74.15
70166;SHT30;57541;47.408;18.822;2022-08-07T03:57:04;20.00;74.14
70166;SHT30;57541;47.408;18.822;2022-08-07T03:57:38;19.97;74.11
70166;SHT30;57541;47.408;18.822;2022-08-07T03:58:29;19.95;74.15
70166;SHT30;57541;47.408;18.822;2022-08-07T03:59:22;19.94;74.28
70166;SHT30;57541;47.408;18.822;2022-08-07T03:59:57;19.97;74.11
70166;SHT30;57541;47.408;18.822;2022-08-07T04:00:35;19.94;74.22
70166;SHT30;57541;47.408;18.822;2022-08-07T04:01:10;19.91;74.20
70166;SHT30;57541;47.408;18.822;2022-08-07T04:01:45;19.88;74.30
70166;SHT30;57541;47.408;18.822;2022-08-07T04:02:17;19.93;74.31